Butterfly — C6UP2 — position and weather

sailwx.info

Track history (hours):
 
Tides and Currents Weather Stations Pressure Air Temp Water Temp Dewpoint Dewpoint Depression Visibility Wind Speed Wind Dir Waves Ship Positions

Butterfly

Last reported at 2017-Feb-21 23:07 UTC. Time now 2017-Feb-25 07:29 UTC.
Position N 14°16' W 018°00'.

Length 182 m; draft 11.4 m.

Type: Ship. MMSI: 311985000.

Date/timePositionNaut miles runAvg speedWind from/ knotsBaromVisibWave heightAir tempDewpointWater temp
2017-Feb-21 23:07N 14°16' W 018°00'812.9
2017-Feb-21 22:29N 14°24' W 017°60'7712.9
2017-Feb-21 16:33N 15°41' W 018°00'  
2017-Feb-17 01:23N 38°48' W 011°37'1112.8
2017-Feb-17 00:33N 38°58' W 011°33'1313.0
2017-Feb-16 23:33N 39°11' W 011°29'63512.7
2017-Feb-14 21:30N 48°55' W 005°44'1212.4
2017-Feb-14 20:32N 49°01' W 005°28'5611.3
2017-Feb-14 15:33N 49°30' W 004°14'2014.1
2017-Feb-14 14:09N 49°40' W 003°49'914.3
2017-Feb-14 13:30N 49°45' W 003°36'1313.8
2017-Feb-14 12:33N 49°52' W 003°18'1312.6
2017-Feb-14 11:33N 49°58' W 003°02'1111.3
2017-Feb-14 10:33N 50°01' W 002°45'9313.0
2017-Feb-14 03:23N 50°26' W 000°25'1214.3
2017-Feb-14 02:33N 50°30' W 000°07'1313.3
2017-Feb-14 01:33N 50°34' E 000°13'1212.0
2017-Feb-14 00:33N 50°37' E 000°31'1111.4
2017-Feb-13 23:33N 50°43' E 000°46'1812.4
2017-Feb-13 22:09N 50°54' E 001°08'914.5
2017-Feb-13 21:33N 50°60' E 001°19'1616.0
2017-Feb-13 20:34N 51°10' E 001°39'1414.5
2017-Feb-13 19:33N 51°21' E 001°53'1312.7
2017-Feb-13 18:33N 51°31' E 002°05'1211.7
2017-Feb-13 17:30N 51°40' E 002°18'1110.9
2017-Feb-13 16:29N 51°49' E 002°29'1010.3
2017-Feb-13 15:33N 51°57' E 002°39'1110.8
2017-Feb-13 14:33N 52°04' E 002°51'1211.9
2017-Feb-13 13:33N 52°13' E 003°04'1313.2
2017-Feb-13 12:33N 52°24' E 003°17'1413.5
2017-Feb-13 11:33N 52°29' E 003°38'1313.4
2017-Feb-13 10:33N 52°31' E 003°60'1313.1
2017-Feb-13 09:33N 52°30' E 004°21'10 9.8
2017-Feb-13 08:34N 52°28' E 004°36'1 0.9
2017-Feb-13 07:33N 52°28' E 004°38'5 5.1
2017-Feb-13 06:31N 52°25' E 004°45'0 0.0
2017-Feb-13 05:31N 52°25' E 004°45'0 0.0
2017-Feb-13 04:31N 52°25' E 004°45'0 0.0
2017-Feb-13 03:31N 52°25' E 004°45'0 0.0
2017-Feb-13 02:31N 52°25' E 004°45'0 0.0
2017-Feb-13 01:28N 52°25' E 004°45'0 0.0
2017-Feb-13 00:31N 52°25' E 004°45'0 0.0
2017-Feb-12 23:31N 52°25' E 004°45'0 0.0
2017-Feb-12 22:31N 52°25' E 004°45'0 0.0
2017-Feb-12 21:31N 52°25' E 004°45'0 0.0
2017-Feb-12 20:31N 52°25' E 004°45'0 0.0
2017-Feb-12 19:31N 52°25' E 004°45'0 0.0
2017-Feb-12 18:31N 52°25' E 004°45'0 0.0
2017-Feb-12 17:31N 52°25' E 004°45'0 0.0
2017-Feb-12 16:31N 52°25' E 004°45'0 0.0
2017-Feb-12 15:31N 52°25' E 004°45'0 0.0
2017-Feb-12 14:31N 52°25' E 004°45'0 0.0
2017-Feb-12 13:31N 52°25' E 004°45'0 0.0
2017-Feb-12 12:31N 52°25' E 004°45'0 0.0
2017-Feb-12 11:31N 52°25' E 004°45'0 0.0
2017-Feb-12 10:28N 52°25' E 004°45'0 0.0
2017-Feb-12 09:31N 52°25' E 004°45'0 0.0
2017-Feb-12 08:31N 52°25' E 004°45'0 0.0
2017-Feb-12 07:31N 52°25' E 004°45'0 0.0
2017-Feb-12 06:31N 52°25' E 004°45'0 0.0
2017-Feb-12 05:31N 52°25' E 004°45'0 0.0
2017-Feb-12 04:31N 52°25' E 004°45'0 0.0
2017-Feb-12 03:31N 52°25' E 004°45'0 0.0
2017-Feb-12 02:31N 52°25' E 004°45'0 0.0
2017-Feb-12 01:31N 52°25' E 004°45'0 0.0
2017-Feb-12 00:28N 52°25' E 004°45'0 0.0
2017-Feb-11 23:31N 52°25' E 004°45'  
Track history (hours):
 
Tides and Currents Weather Stations Pressure Air Temp Water Temp Dewpoint Dewpoint Depression Visibility Wind Speed Wind Dir Waves Ship Positions

Butterfly

Last reported at 2017-Feb-21 23:07 UTC. Time now 2017-Feb-25 07:29 UTC.
Position N 14°16' W 018°00'.

Length 182 m; draft 11.4 m.

Type: Ship. MMSI: 311985000.

Date/timePositionNaut miles runAvg speedWind from/ knotsBaromVisibWave heightAir tempDewpointWater temp
2017-Feb-21 23:07N 14°16' W 018°00'812.9
2017-Feb-21 22:29N 14°24' W 017°60'7712.9
2017-Feb-21 16:33N 15°41' W 018°00'  
2017-Feb-17 01:23N 38°48' W 011°37'1112.8
2017-Feb-17 00:33N 38°58' W 011°33'1313.0
2017-Feb-16 23:33N 39°11' W 011°29'63512.7
2017-Feb-14 21:30N 48°55' W 005°44'1212.4
2017-Feb-14 20:32N 49°01' W 005°28'5611.3
2017-Feb-14 15:33N 49°30' W 004°14'2014.1
2017-Feb-14 14:09N 49°40' W 003°49'914.3
2017-Feb-14 13:30N 49°45' W 003°36'1313.8
2017-Feb-14 12:33N 49°52' W 003°18'1312.6
2017-Feb-14 11:33N 49°58' W 003°02'1111.3
2017-Feb-14 10:33N 50°01' W 002°45'9313.0
2017-Feb-14 03:23N 50°26' W 000°25'1214.3
2017-Feb-14 02:33N 50°30' W 000°07'1313.3
2017-Feb-14 01:33N 50°34' E 000°13'1212.0
2017-Feb-14 00:33N 50°37' E 000°31'1111.4
2017-Feb-13 23:33N 50°43' E 000°46'1812.4
2017-Feb-13 22:09N 50°54' E 001°08'914.5
2017-Feb-13 21:33N 50°60' E 001°19'1616.0
2017-Feb-13 20:34N 51°10' E 001°39'1414.5
2017-Feb-13 19:33N 51°21' E 001°53'1312.7
2017-Feb-13 18:33N 51°31' E 002°05'1211.7
2017-Feb-13 17:30N 51°40' E 002°18'1110.9
2017-Feb-13 16:29N 51°49' E 002°29'1010.3
2017-Feb-13 15:33N 51°57' E 002°39'1110.8
2017-Feb-13 14:33N 52°04' E 002°51'1211.9
2017-Feb-13 13:33N 52°13' E 003°04'1313.2
2017-Feb-13 12:33N 52°24' E 003°17'1413.5
2017-Feb-13 11:33N 52°29' E 003°38'1313.4
2017-Feb-13 10:33N 52°31' E 003°60'1313.1
2017-Feb-13 09:33N 52°30' E 004°21'10 9.8
2017-Feb-13 08:34N 52°28' E 004°36'1 0.9
2017-Feb-13 07:33N 52°28' E 004°38'5 5.1
2017-Feb-13 06:31N 52°25' E 004°45'0 0.0
2017-Feb-13 05:31N 52°25' E 004°45'0 0.0
2017-Feb-13 04:31N 52°25' E 004°45'0 0.0
2017-Feb-13 03:31N 52°25' E 004°45'0 0.0
2017-Feb-13 02:31N 52°25' E 004°45'0 0.0
2017-Feb-13 01:28N 52°25' E 004°45'0 0.0
2017-Feb-13 00:31N 52°25' E 004°45'0 0.0
2017-Feb-12 23:31N 52°25' E 004°45'0 0.0
2017-Feb-12 22:31N 52°25' E 004°45'0 0.0
2017-Feb-12 21:31N 52°25' E 004°45'0 0.0
2017-Feb-12 20:31N 52°25' E 004°45'0 0.0
2017-Feb-12 19:31N 52°25' E 004°45'0 0.0
2017-Feb-12 18:31N 52°25' E 004°45'0 0.0
2017-Feb-12 17:31N 52°25' E 004°45'0 0.0
2017-Feb-12 16:31N 52°25' E 004°45'0 0.0
2017-Feb-12 15:31N 52°25' E 004°45'0 0.0
2017-Feb-12 14:31N 52°25' E 004°45'0 0.0
2017-Feb-12 13:31N 52°25' E 004°45'0 0.0
2017-Feb-12 12:31N 52°25' E 004°45'0 0.0
2017-Feb-12 11:31N 52°25' E 004°45'0 0.0
2017-Feb-12 10:28N 52°25' E 004°45'0 0.0
2017-Feb-12 09:31N 52°25' E 004°45'0 0.0
2017-Feb-12 08:31N 52°25' E 004°45'0 0.0
2017-Feb-12 07:31N 52°25' E 004°45'0 0.0
2017-Feb-12 06:31N 52°25' E 004°45'0 0.0
2017-Feb-12 05:31N 52°25' E 004°45'0 0.0
2017-Feb-12 04:31N 52°25' E 004°45'0 0.0
2017-Feb-12 03:31N 52°25' E 004°45'0 0.0
2017-Feb-12 02:31N 52°25' E 004°45'0 0.0
2017-Feb-12 01:31N 52°25' E 004°45'0 0.0
2017-Feb-12 00:28N 52°25' E 004°45'0 0.0
2017-Feb-11 23:31N 52°25' E 004°45'  

Dump ship's entire track history